Terminal Aerodrome Forecast
Issued by NWS

Home | Current Version | Previous Version | Text Only | Print | Product List | Glossary On
Versions: 1 2 3 4 5 6 7 8 9 10 11 12 13 14 15 16 17 18 19 20 21
000
FTUS44 KLUB 202300 AAA
TAFCDS
TAF AMD
KCDS 202352Z 2100/2124 08014KT P6SM BKN060
      TEMPO 2100/2102 -TSRA BKN040CB
     FM210300 17010KT P6SM SCT100
     FM211300 36012KT P6SM SCT250=

USA.gov is the U.S. government's official web portal to all federal, state and local government web resources and services.